Decoded Metar for KSTK (STERLING in CO, USA) (IATA:STK) | Meteo·Mobile Aviation Weather
aviador You're here:

KSTK Decoded Metar

STERLING in CO, USA
Report Time2019-03-22 10:10:00
UTC Time2019-03-22 10:37:29
Flight Rules vfr VFR
Wind180° at 04 kt
W.Decomp.*RWY 15: 3.7 kt HW 1.5 kt RCW
RWY 21: 3.2 kt HW 2.5 kt LCW
W.Rank180° ranks 9
Current wind is below 180° avg. (6.9)
Visibility9999 m
Phenomena:N/A
Clouds:N/A
Expected CloudBase > 2,000 ft AGL from Temp-Dew spread
CeilingNone
Temp03°C (ISA -4)
Dew Point-2°C (70% RH)
AAT-0.7°C
QNH1016 hPa
Density Alt3,543 ft
Elevation4,039 ft
Report Wrong Elevation
Raw Report
KSTK 221010Z AUTO 18004KT 10SM CLR 03/M02 A3000 RMK AO2=

Extra information for KSTK:More info

Metar Taf Metar & Taf Last 4 Metars F.Rules Stats Wind Profile Meteogram Temp Stats Airport Information Weather charts Add Link Nearby VenuesMetar ALERT Operation Metar Decoded Social comments

AIRNAV info for KSTK